Latest Coastal Weather Observations for Groote Eylandt Airport

IDD60701

Issued at 9:41 pm CST Monday 26 June 2017 (issued every 10 minutes, with the page automatically refreshed every 10 minutes)

About coastal observations | Map of coastal stations | Coastal observations for NT | Marine services | Other Formats
Station Details ID: 014518 Name: GROOTE EYLANDT AIRPORT Lat: -13.97 Lon: 136.46 Height: 13.7 m
Data from the previous 72 hours. | See also: Recent months at Groote Eylandt Airport
Date/Time
CST
Temp
°C
Wind Pressure Rain since
9am
mm
Weather Cloud Vis
km
Sea
Height
m
Swell
Dir  Spd
kts
Gust
kts
hPa Trend Height
m
Period
s
Dir
26/09:30pm 21.6 CALM 0 0 1014.8 - 0.2 - - 10 - - - -
26/09:00pm 21.6 CALM 0 0 1014.6 - 0.2 - Mostly clear 10 - - - -
26/08:30pm 22.0 CALM 0 0 1014.4 - 0.2 - - 10 - - - -
26/08:00pm 22.7 SE 3 4 1014.1 - 0.2 - - 10 - - - -
26/07:30pm 22.9 SE 3 4 1013.9 - 0.2 - Partly cloudy 10 - - - -
26/07:00pm 23.7 SE 2 3 1013.6 - 0.2 - - 10 - - - -
26/06:30pm 24.0 SE 3 4 1013.3 - 0.2 - Partly cloudy 10 - - - -
26/06:00pm 25.3 ENE 5 8 1013.2 - 0.2 Rain Cloudy 10 - - - -
26/05:30pm 25.4 WSW 4 5 1013.1 - 0.2 - Partly cloudy 10 - - - -
26/05:00pm 27.3 SW 4 6 1013.0 - 0.0 - Partly cloudy 8 - - - -
26/04:30pm 28.3 SW 6 9 1012.8 - 0.0 - Partly cloudy 10 - - - -
26/04:00pm 28.1 WSW 5 8 1012.8 - 0.0 - Partly cloudy 10 - - - -
26/03:30pm 27.2 SW 5 8 1012.7 - 0.0 - Partly cloudy 10 - - - -
26/03:00pm 27.7 WSW 5 8 1012.8 - 0.0 - Mostly cloudy 10 - - - -
26/02:30pm 26.4 WSW 7 11 1012.9 - 0.0 - Partly cloudy 10 - - - -
26/02:00pm 27.3 WSW 8 13 1013.1 - 0.0 - Partly cloudy - - - - -
26/01:30pm 29.3 NE 4 7 1013.3 - 0.0 - Partly cloudy 10 - - - -
26/01:00pm 28.5 E 7 13 1013.7 - 0.0 - Partly cloudy 10 - - - -
26/12:30pm 29.5 E 6 11 1014.1 - 0.0 - Partly cloudy 10 - - - -
26/12:00pm 28.5 ENE 6 10 1014.5 - 0.0 - Cloudy 10 - - - -
26/11:30am 28.5 ENE 9 14 1014.7 - 0.0 - Partly cloudy 10 - - - -
26/11:00am 28.5 ENE 10 15 1014.9 - 0.0 - - 10 - - - -
26/10:30am 27.7 ENE 10 13 1015.2 - 0.0 - - 10 - - - -
26/10:00am 27.4 ENE 10 16 1015.2 - 0.0 - Partly cloudy 10 - - - -
26/09:30am 26.6 ENE 9 13 1015.2 - 0.0 - Partly cloudy 10 - - - -
26/09:00am 24.7 ESE 5 7 1015.1 - 0.0 - - 10 - - - -
26/08:30am 22.4 ESE 1 4 1014.8 - 0.0 - - 10 - - - -
26/08:00am 18.9 ESE 1 3 1014.4 - 0.0 - - 10 - - - -
26/07:30am 16.6 ESE 1 3 1014.1 - 0.0 - - 10 - - - -
26/07:03am 15.4 E 1 5 1013.9 - 0.0 - Partly cloudy 10 - - - -
26/07:00am 15.5 CALM 0 3 1013.9 - 0.0 - Partly cloudy 10 - - - -
26/06:44am 15.3 ESE 4 5 1013.8 - 0.0 - Partly cloudy 4 - - - -
26/06:30am 15.1 ESE 1 4 1013.6 - 0.0 - Partly cloudy 10 - - - -
26/06:00am 15.4 ESE 1 5 1013.4 - 0.0 - Mostly clear 10 - - - -
26/05:30am 15.7 ESE 3 3 1013.2 - 0.0 - Partly cloudy 10 - - - -
26/05:00am 15.9 E 2 5 1013.1 - 0.0 - - 10 - - - -
26/04:35am 16.0 ESE 1 3 1013.1 - 0.0 - Partly cloudy 10 - - - -
26/04:30am 16.0 CALM 0 3 1013.1 - 0.0 - Partly cloudy 10 - - - -
26/04:21am 16.1 CALM 0 0 1013.1 - 0.0 - Partly cloudy 10 - - - -
26/04:00am 16.3 CALM 0 0 1013.2 - 0.0 - Partly cloudy 10 - - - -
26/03:30am 16.4 CALM 0 0 1013.3 - 0.0 - - 10 - - - -
26/03:00am 16.6 CALM 0 0 1013.3 - 0.0 - - 10 - - - -
26/02:30am 16.8 CALM 0 0 1013.5 - 0.0 - Partly cloudy 10 - - - -
26/02:00am 16.9 CALM 0 0 1013.7 - 0.0 - - 10 - - - -
26/01:30am 17.0 CALM 0 0 1013.9 - 0.0 - - 10 - - - -
26/01:00am 17.2 CALM 0 0 1014.0 - 0.0 - - 10 - - - -
26/12:30am 17.6 CALM 0 0 1014.1 - 0.0 - - 10 - - - -
26/12:00am 17.8 CALM 0 0 1014.3 - 0.0 - - 10 - - - -
 
Date/Time
CST
Temp
°C
Wind Pressure Rain since
9am
mm
Weather Cloud Vis
km
Sea
Height
m
Swell
Dir  Spd
kts
Gust
kts
hPa Trend Height
m
Period
s
Dir
25/11:30pm 18.2 CALM 0 0 1014.3 - 0.0 - - 10 - - - -
25/11:00pm 18.3 CALM 0 0 1014.4 - 0.0 - - 10 - - - -
25/10:30pm 18.3 CALM 0 0 1014.4 - 0.0 - - 10 - - - -
25/10:00pm 18.9 CALM 0 0 1014.4 - 0.0 - - 10 - - - -
25/09:30pm 19.2 CALM 0 0 1014.3 - 0.0 - - 10 - - - -
25/09:00pm 19.7 CALM 0 0 1014.0 - 0.0 - - 10 - - - -
25/08:30pm 20.5 CALM 0 0 1013.9 - 0.0 - - 10 - - - -
25/08:00pm 21.3 CALM 0 0 1013.7 - 0.0 - - 10 - - - -
25/07:30pm 22.6 CALM 0 0 1013.4 - 0.0 - - 10 - - - -
25/07:00pm 24.0 ESE 3 5 1013.0 - 0.0 - Partly cloudy 10 - - - -
25/06:30pm 24.8 ESE 4 6 1012.7 - 0.0 - Partly cloudy 10 - - - -
25/06:00pm 25.8 ESE 5 6 1012.4 - 0.0 - Mostly cloudy 10 - - - -
25/05:30pm 26.9 E 6 9 1012.2 - 0.0 - Partly cloudy 10 - - - -
25/05:00pm 27.9 E 8 11 1012.1 - 0.0 - - 10 - - - -
25/04:30pm 27.9 E 10 13 1012.1 - 0.0 - Partly cloudy 10 - - - -
25/04:00pm 27.2 ESE 7 14 1012.0 - 0.0 - Partly cloudy 10 - - - -
25/03:30pm 28.3 ESE 9 15 1011.9 - 0.0 - Partly cloudy 10 - - - -
25/03:00pm 29.2 E 9 15 1011.9 - 0.0 - Mostly clear 10 - - - -
25/02:30pm 29.1 ESE 9 12 1011.9 - 0.0 - Partly cloudy 10 - - - -
25/02:00pm 29.8 E 8 14 1012.2 - 0.0 - Partly cloudy 10 - - - -
25/01:30pm 29.0 ESE 7 14 1012.4 - 0.0 - Partly cloudy 10 - - - -
25/01:00pm 29.4 ENE 9 14 1012.7 - 0.0 - - 10 - - - -
25/12:30pm 29.5 ENE 10 15 1013.0 - 0.0 - Partly cloudy 10 - - - -
25/12:00pm 29.1 E 12 17 1013.5 - 0.0 - Partly cloudy 10 - - - -
25/11:30am 28.0 ESE 12 19 1013.8 - 0.0 - Partly cloudy 10 - - - -
25/11:00am 27.8 E 9 15 1014.1 - 0.0 - Partly cloudy 10 - - - -
25/10:30am 27.4 ESE 8 13 1014.1 - 0.0 - Partly cloudy 10 - - - -
25/10:00am 26.3 ESE 8 12 1014.3 - 0.0 - - 10 - - - -
25/09:30am 25.5 SE 6 10 1014.3 - 0.0 - - 10 - - - -
25/09:00am 24.4 E 1 3 1014.2 - 0.0 - - 10 - - - -
25/08:30am 20.6 CALM 0 0 1014.0 - 0.0 - - 10 - - - -
25/08:00am 18.4 CALM 0 2 1013.6 - 0.0 - - 10 - - - -
25/07:30am 15.9 CALM 0 0 1013.4 - 0.0 - - 10 - - - -
25/07:00am 14.9 CALM 0 0 1013.0 - 0.0 - - 10 - - - -
25/06:30am 14.9 E 2 3 1012.7 - 0.0 - - 10 - - - -
25/06:00am 15.0 E 4 5 1012.2 - 0.0 - - 10 - - - -
25/05:30am 15.3 CALM 0 0 1012.2 - 0.0 - - 10 - - - -
25/05:00am 15.7 E 1 3 1012.2 - 0.0 - - 10 - - - -
25/04:30am 15.8 E 3 4 1012.3 - 0.0 - - 10 - - - -
25/04:00am 16.0 ESE 3 4 1012.3 - 0.0 - - 10 - - - -
25/03:30am 16.3 CALM 0 0 1012.5 - 0.0 - - 10 - - - -
25/03:00am 16.7 CALM 0 0 1012.5 - 0.0 - - 10 - - - -
25/02:30am 17.2 ESE 3 4 1012.9 - 0.0 - - 10 - - - -
25/02:00am 17.5 ESE 3 4 1013.2 - 0.0 - - 10 - - - -
25/01:30am 17.9 ESE 3 5 1013.4 - 0.0 - - 10 - - - -
25/01:00am 18.4 CALM 0 0 1013.6 - 0.0 - - 10 - - - -
25/12:30am 18.9 CALM 0 2 1013.6 - 0.0 - - 10 - - - -
25/12:00am 19.0 ESE 3 3 1013.5 - 0.0 - - 10 - - - -
 
Date/Time
CST
Temp
°C
Wind Pressure Rain since
9am
mm
Weather Cloud Vis
km
Sea
Height
m
Swell
Dir  Spd
kts
Gust
kts
hPa Trend Height
m
Period
s
Dir
24/11:30pm 19.6 ESE 3 3 1013.5 - 0.0 - - 10 - - - -
24/11:00pm 20.1 ESE 1 3 1013.6 - 0.0 - - 10 - - - -
24/10:30pm 21.1 CALM 0 0 1013.5 - 0.0 - - 10 - - - -
24/10:00pm 21.7 ESE 3 5 1013.6 - 0.0 - - 10 - - - -
24/09:30pm 22.4 ESE 4 6 1013.4 - 0.0 - - 10 - - - -
24/09:00pm 22.7 SE 5 7 1013.4 - 0.0 - - 10 - - - -
24/08:30pm 22.9 SE 6 10 1013.0 - 0.0 - - 10 - - - -
24/08:00pm 22.9 SE 4 7 1012.8 - 0.0 - - 10 - - - -
24/07:30pm 23.1 SE 4 7 1012.5 - 0.0 - - 10 - - - -
24/07:00pm 23.4 SE 4 6 1012.3 - 0.0 - - 10 - - - -
24/06:30pm 24.0 SE 5 7 1012.0 - 0.0 - - 10 - - - -
24/06:00pm 25.0 ESE 5 8 1011.7 - 0.0 - Mostly clear 10 - - - -
24/05:30pm 25.6 ESE 5 9 1011.4 - 0.0 - Partly cloudy 10 - - - -
24/05:00pm 27.0 ESE 7 14 1011.2 - 0.0 - Partly cloudy 10 - - - -
24/04:30pm 27.3 ESE 8 11 1011.1 - 0.0 - - 10 - - - -
24/04:00pm 28.2 ESE 8 11 1010.9 - 0.0 - Partly cloudy 10 - - - -
24/03:30pm 29.3 E 9 13 1011.0 - 0.0 - - 10 - - - -
24/03:00pm 28.2 E 9 11 1011.2 - 0.0 - Mostly clear 10 - - - -
24/02:30pm 29.6 ENE 8 10 1011.4 - 0.0 - - 10 - - - -
24/02:00pm 29.4 ESE 5 8 1011.9 - 0.0 - Partly cloudy 10 - - - -
24/01:30pm 28.0 ESE 6 8 1012.4 - 0.0 - Partly cloudy 10 - - - -
24/01:00pm 30.2 E 8 12 1012.6 - 0.0 - Partly cloudy 10 - - - -
24/12:30pm 29.0 SE 7 11 1012.9 - 0.0 - Partly cloudy 10 - - - -
24/12:00pm 29.1 E 8 13 1013.4 - 0.0 - Mostly clear 10 - - - -
24/11:30am 28.8 ESE 8 13 1013.7 - 0.0 - Partly cloudy 10 - - - -
24/11:00am 27.8 E 9 14 1014.1 - 0.0 - Partly cloudy 10 - - - -
24/10:30am 27.6 E 9 14 1014.3 - 0.0 - Partly cloudy 10 - - - -
24/10:00am 27.1 ESE 7 11 1014.4 - 0.0 - - 10 - - - -
24/09:44am 26.5 E 5 7 1014.5 - 0.0 - - 10 - - - -
24/09:30am 26.4 ESE 5 7 1014.5 - 0.0 - - 4 - - - -
24/09:28am 26.3 ESE 5 7 1014.5 - 0.0 - - 4 - - - -
24/09:00am 24.8 ESE 4 7 1014.3 - - - - 10 - - - -
24/08:30am 22.9 E 3 5 1014.2 - - - - 10 - - - -
24/08:00am 19.7 CALM 0 1 1013.9 - - - - 10 - - - -
24/07:30am 16.0 CALM 0 3 1013.5 - - - - 10 - - - -
24/07:00am 14.5 CALM 0 0 1013.1 - - - - 10 - - - -
24/06:30am 14.3 CALM 0 0 1012.8 - - - - 10 - - - -
24/06:00am 14.3 CALM 0 0 1012.5 - - - - 10 - - - -
24/05:30am 14.2 CALM 0 0 1012.2 - - - - 10 - - - -
24/05:00am 14.5 ESE 3 5 1012.2 - - - - 10 - - - -
24/04:30am 14.8 CALM 0 0 1012.3 - - - - 10 - - - -
24/04:00am 15.1 ESE 1 4 1012.4 - - - - 10 - - - -
24/03:30am 15.6 ESE 2 4 1012.7 - - - - 10 - - - -
24/03:00am 16.0 CALM 0 0 1013.1 - 0.0 - - 10 - - - -
24/02:30am 16.3 CALM 0 0 1013.2 - - - - 10 - - - -
24/02:18am 16.4 CALM 0 0 1013.3 - - - - 10 - - - -
24/02:00am 16.6 CALM 0 0 1013.4 - - - - 3 - - - -
24/01:58am 16.6 CALM 0 0 1013.4 - - - - 4 - - - -
24/01:30am 16.8 ESE 3 4 1013.6 - - - - 10 - - - -
24/01:00am 17.3 CALM 0 0 1014.0 - - - - 10 - - - -
24/12:30am 17.7 E 3 4 1014.2 - - - - 10 - - - -
24/12:00am 18.3 ESE 4 5 1014.2 - - - - 10 - - - -
 
Date/Time
CST
Temp
°C
Wind Pressure Rain since
9am
mm
Weather Cloud Vis
km
Sea
Height
m
Swell
Dir  Spd
kts
Gust
kts
hPa Trend Height
m
Period
s
Dir
23/11:30pm 18.7 CALM 0 0 1014.3 - - - - 10 - - - -
23/11:00pm 19.4 ESE 3 4 1014.6 - - - - 10 - - - -
23/10:30pm 20.0 CALM 0 0 1014.8 - - - - 10 - - - -
23/10:00pm 20.6 CALM 0 2 1014.9 - - - - 10 - - - -

Other Formats:

Comma delimited format used in spreadsheet applications
http://www.bom.gov.au/fwo/IDD60701/IDD60701.94153.axf

JavaScript Object Notation format (JSON) in row-major order
http://www.bom.gov.au/fwo/IDD60701/IDD60701.94153.json